sensor_id;sensor_type;location;lat;lon;timestamp;P1;durP1;ratioP1;P2;durP2;ratioP2
72761;SDS011;60886;55.034;73.150;2022-07-29T00:01:26;15.20;;;7.50;;
72761;SDS011;60886;55.034;73.150;2022-07-29T00:03:53;15.20;;;7.20;;
72761;SDS011;60886;55.034;73.150;2022-07-29T00:06:19;15.90;;;7.00;;
72761;SDS011;60886;55.034;73.150;2022-07-29T00:08:46;16.15;;;7.68;;
72761;SDS011;60886;55.034;73.150;2022-07-29T00:11:22;58.40;;;23.83;;
72761;SDS011;60886;55.034;73.150;2022-07-29T00:13:54;14.27;;;6.85;;
72761;SDS011;60886;55.034;73.150;2022-07-29T00:16:20;13.90;;;7.32;;
72761;SDS011;60886;55.034;73.150;2022-07-29T00:18:47;16.27;;;7.43;;
72761;SDS011;60886;55.034;73.150;2022-07-29T00:21:13;12.50;;;6.78;;
72761;SDS011;60886;55.034;73.150;2022-07-29T00:23:45;14.43;;;7.87;;
72761;SDS011;60886;55.034;73.150;2022-07-29T00:26:12;16.77;;;8.88;;
72761;SDS011;60886;55.034;73.150;2022-07-29T00:28:47;15.27;;;7.88;;
72761;SDS011;60886;55.034;73.150;2022-07-29T00:31:14;58.75;;;35.58;;
72761;SDS011;60886;55.034;73.150;2022-07-29T00:33:40;20.42;;;9.77;;
72761;SDS011;60886;55.034;73.150;2022-07-29T00:36:17;19.93;;;9.93;;
72761;SDS011;60886;55.034;73.150;2022-07-29T00:38:43;15.82;;;8.77;;
72761;SDS011;60886;55.034;73.150;2022-07-29T00:41:11;17.55;;;10.30;;
72761;SDS011;60886;55.034;73.150;2022-07-29T00:43:48;16.70;;;9.98;;
72761;SDS011;60886;55.034;73.150;2022-07-29T00:46:14;13.70;;;6.70;;
72761;SDS011;60886;55.034;73.150;2022-07-29T00:48:41;9.70;;;4.97;;
72761;SDS011;60886;55.034;73.150;2022-07-29T00:51:07;9.48;;;4.57;;
72761;SDS011;60886;55.034;73.150;2022-07-29T00:53:35;11.60;;;5.35;;
72761;SDS011;60886;55.034;73.150;2022-07-29T00:56:02;12.00;;;4.90;;
72761;SDS011;60886;55.034;73.150;2022-07-29T00:58:29;10.88;;;4.75;;
72761;SDS011;60886;55.034;73.150;2022-07-29T01:00:57;8.20;;;4.10;;
72761;SDS011;60886;55.034;73.150;2022-07-29T01:03:24;9.07;;;4.15;;
72761;SDS011;60886;55.034;73.150;2022-07-29T01:05:50;9.82;;;3.92;;
72761;SDS011;60886;55.034;73.150;2022-07-29T01:08:17;10.07;;;4.47;;
72761;SDS011;60886;55.034;73.150;2022-07-29T01:10:45;9.75;;;3.85;;
72761;SDS011;60886;55.034;73.150;2022-07-29T01:13:13;8.73;;;3.97;;
72761;SDS011;60886;55.034;73.150;2022-07-29T01:15:45;9.18;;;4.30;;
72761;SDS011;60886;55.034;73.150;2022-07-29T01:23:52;9.00;;;4.03;;
72761;SDS011;60886;55.034;73.150;2022-07-29T01:29:32;9.00;;;4.22;;
72761;SDS011;60886;55.034;73.150;2022-07-29T01:32:33;10.52;;;4.88;;
72761;SDS011;60886;55.034;73.150;2022-07-29T01:37:43;11.60;;;6.13;;
72761;SDS011;60886;55.034;73.150;2022-07-29T01:40:24;10.00;;;5.10;;
72761;SDS011;60886;55.034;73.150;2022-07-29T01:42:55;10.30;;;4.90;;
72761;SDS011;60886;55.034;73.150;2022-07-29T01:48:12;10.30;;;5.20;;
72761;SDS011;60886;55.034;73.150;2022-07-29T01:50:49;11.65;;;5.03;;
72761;SDS011;60886;55.034;73.150;2022-07-29T01:53:34;9.70;;;4.90;;
72761;SDS011;60886;55.034;73.150;2022-07-29T01:56:03;10.60;;;5.13;;
72761;SDS011;60886;55.034;73.150;2022-07-29T01:58:32;11.70;;;5.10;;
72761;SDS011;60886;55.034;73.150;2022-07-29T02:01:01;10.82;;;5.22;;
72761;SDS011;60886;55.034;73.150;2022-07-29T02:03:29;11.43;;;5.60;;
72761;SDS011;60886;55.034;73.150;2022-07-29T02:05:58;12.60;;;5.73;;
72761;SDS011;60886;55.034;73.150;2022-07-29T02:08:28;12.50;;;6.03;;
72761;SDS011;60886;55.034;73.150;2022-07-29T02:10:57;12.35;;;6.57;;
72761;SDS011;60886;55.034;73.150;2022-07-29T02:13:26;13.00;;;7.20;;
72761;SDS011;60886;55.034;73.150;2022-07-29T02:15:55;16.17;;;7.22;;
72761;SDS011;60886;55.034;73.150;2022-07-29T02:18:23;20.63;;;7.60;;
72761;SDS011;60886;55.034;73.150;2022-07-29T02:20:54;17.75;;;7.32;;
72761;SDS011;60886;55.034;73.150;2022-07-29T02:23:23;16.33;;;7.75;;
72761;SDS011;60886;55.034;73.150;2022-07-29T02:25:52;15.63;;;7.82;;
72761;SDS011;60886;55.034;73.150;2022-07-29T02:28:21;17.50;;;7.65;;
72761;SDS011;60886;55.034;73.150;2022-07-29T02:30:49;15.60;;;6.90;;
72761;SDS011;60886;55.034;73.150;2022-07-29T02:33:28;19.35;;;8.23;;
72761;SDS011;60886;55.034;73.150;2022-07-29T02:35:57;21.05;;;8.88;;
72761;SDS011;60886;55.034;73.150;2022-07-29T02:38:25;15.48;;;7.38;;
72761;SDS011;60886;55.034;73.150;2022-07-29T02:41:13;12.20;;;5.70;;
72761;SDS011;60886;55.034;73.150;2022-07-29T02:43:43;10.03;;;5.17;;
72761;SDS011;60886;55.034;73.150;2022-07-29T02:46:19;11.23;;;5.32;;
72761;SDS011;60886;55.034;73.150;2022-07-29T02:49:12;14.63;;;5.88;;
72761;SDS011;60886;55.034;73.150;2022-07-29T02:52:08;13.68;;;6.15;;
72761;SDS011;60886;55.034;73.150;2022-07-29T02:54:44;14.85;;;6.15;;
72761;SDS011;60886;55.034;73.150;2022-07-29T02:57:41;13.50;;;5.73;;
72761;SDS011;60886;55.034;73.150;2022-07-29T03:00:12;13.52;;;5.57;;
72761;SDS011;60886;55.034;73.150;2022-07-29T03:02:42;14.20;;;6.32;;
72761;SDS011;60886;55.034;73.150;2022-07-29T03:05:15;13.75;;;5.90;;
72761;SDS011;60886;55.034;73.150;2022-07-29T03:07:54;15.25;;;5.78;;
72761;SDS011;60886;55.034;73.150;2022-07-29T03:10:24;12.47;;;5.50;;
72761;SDS011;60886;55.034;73.150;2022-07-29T03:12:52;11.52;;;4.03;;
72761;SDS011;60886;55.034;73.150;2022-07-29T03:15:19;8.85;;;4.07;;
72761;SDS011;60886;55.034;73.150;2022-07-29T03:17:47;10.18;;;4.63;;
72761;SDS011;60886;55.034;73.150;2022-07-29T03:20:16;10.65;;;4.72;;
72761;SDS011;60886;55.034;73.150;2022-07-29T03:22:44;10.90;;;4.70;;
72761;SDS011;60886;55.034;73.150;2022-07-29T03:25:14;11.77;;;4.70;;
72761;SDS011;60886;55.034;73.150;2022-07-29T03:27:43;11.32;;;4.43;;
72761;SDS011;60886;55.034;73.150;2022-07-29T03:30:10;14.25;;;5.32;;
72761;SDS011;60886;55.034;73.150;2022-07-29T03:32:43;19.27;;;6.80;;
72761;SDS011;60886;55.034;73.150;2022-07-29T03:35:10;18.23;;;7.07;;
72761;SDS011;60886;55.034;73.150;2022-07-29T03:37:36;16.35;;;8.43;;
72761;SDS011;60886;55.034;73.150;2022-07-29T03:40:07;21.60;;;13.13;;
72761;SDS011;60886;55.034;73.150;2022-07-29T03:42:36;31.55;;;18.88;;
72761;SDS011;60886;55.034;73.150;2022-07-29T03:45:08;25.40;;;15.45;;
72761;SDS011;60886;55.034;73.150;2022-07-29T03:47:48;18.27;;;9.70;;
72761;SDS011;60886;55.034;73.150;2022-07-29T03:50:18;21.92;;;10.65;;
72761;SDS011;60886;55.034;73.150;2022-07-29T03:52:47;19.85;;;9.70;;
72761;SDS011;60886;55.034;73.150;2022-07-29T03:55:14;18.52;;;10.60;;
72761;SDS011;60886;55.034;73.150;2022-07-29T03:57:41;20.05;;;13.13;;
72761;SDS011;60886;55.034;73.150;2022-07-29T04:00:12;30.20;;;21.17;;
72761;SDS011;60886;55.034;73.150;2022-07-29T04:02:41;35.08;;;24.00;;
72761;SDS011;60886;55.034;73.150;2022-07-29T04:05:14;29.58;;;21.42;;
72761;SDS011;60886;55.034;73.150;2022-07-29T04:07:46;30.17;;;21.42;;
72761;SDS011;60886;55.034;73.150;2022-07-29T04:10:13;25.38;;;17.70;;
72761;SDS011;60886;55.034;73.150;2022-07-29T04:12:44;19.80;;;12.63;;
72761;SDS011;60886;55.034;73.150;2022-07-29T04:15:11;22.83;;;13.27;;
72761;SDS011;60886;55.034;73.150;2022-07-29T04:17:37;23.77;;;13.15;;
72761;SDS011;60886;55.034;73.150;2022-07-29T04:20:04;23.38;;;14.52;;
72761;SDS011;60886;55.034;73.150;2022-07-29T04:22:37;26.13;;;16.60;;
72761;SDS011;60886;55.034;73.150;2022-07-29T04:25:03;27.27;;;14.87;;
72761;SDS011;60886;55.034;73.150;2022-07-29T04:27:31;23.80;;;13.77;;
72761;SDS011;60886;55.034;73.150;2022-07-29T04:30:00;29.77;;;15.32;;
72761;SDS011;60886;55.034;73.150;2022-07-29T04:32:27;34.22;;;16.80;;
72761;SDS011;60886;55.034;73.150;2022-07-29T04:35:00;29.75;;;17.80;;
72761;SDS011;60886;55.034;73.150;2022-07-29T04:37:33;25.00;;;12.53;;
72761;SDS011;60886;55.034;73.150;2022-07-29T04:39:59;32.38;;;15.57;;
72761;SDS011;60886;55.034;73.150;2022-07-29T04:42:26;30.60;;;12.23;;
72761;SDS011;60886;55.034;73.150;2022-07-29T04:44:56;24.25;;;12.45;;
72761;SDS011;60886;55.034;73.150;2022-07-29T04:47:26;30.42;;;14.68;;
72761;SDS011;60886;55.034;73.150;2022-07-29T04:49:52;29.17;;;14.00;;
72761;SDS011;60886;55.034;73.150;2022-07-29T04:52:19;31.25;;;14.45;;
72761;SDS011;60886;55.034;73.150;2022-07-29T04:54:55;28.00;;;13.55;;
72761;SDS011;60886;55.034;73.150;2022-07-29T04:57:21;35.10;;;14.98;;
72761;SDS011;60886;55.034;73.150;2022-07-29T04:59:48;26.48;;;13.05;;
72761;SDS011;60886;55.034;73.150;2022-07-29T05:02:14;27.80;;;15.50;;
72761;SDS011;60886;55.034;73.150;2022-07-29T05:04:41;29.55;;;16.05;;
72761;SDS011;60886;55.034;73.150;2022-07-29T05:07:07;33.55;;;17.77;;
72761;SDS011;60886;55.034;73.150;2022-07-29T05:09:43;30.67;;;18.08;;
72761;SDS011;60886;55.034;73.150;2022-07-29T05:12:09;30.25;;;19.73;;
72761;SDS011;60886;55.034;73.150;2022-07-29T05:14:37;32.37;;;21.27;;
72761;SDS011;60886;55.034;73.150;2022-07-29T05:17:04;28.30;;;20.67;;
72761;SDS011;60886;55.034;73.150;2022-07-29T05:19:31;30.00;;;18.67;;
72761;SDS011;60886;55.034;73.150;2022-07-29T05:21:57;31.20;;;17.00;;
72761;SDS011;60886;55.034;73.150;2022-07-29T05:24:26;29.17;;;17.45;;
72761;SDS011;60886;55.034;73.150;2022-07-29T05:26:53;27.87;;;17.90;;
72761;SDS011;60886;55.034;73.150;2022-07-29T05:29:19;25.83;;;15.82;;
72761;SDS011;60886;55.034;73.150;2022-07-29T05:31:56;31.35;;;15.43;;
72761;SDS011;60886;55.034;73.150;2022-07-29T05:34:22;28.15;;;16.55;;
72761;SDS011;60886;55.034;73.150;2022-07-29T05:36:50;24.65;;;13.32;;
72761;SDS011;60886;55.034;73.150;2022-07-29T05:39:17;23.90;;;13.83;;
72761;SDS011;60886;55.034;73.150;2022-07-29T05:41:43;23.88;;;13.50;;
72761;SDS011;60886;55.034;73.150;2022-07-29T05:44:10;24.65;;;14.82;;
72761;SDS011;60886;55.034;73.150;2022-07-29T05:46:38;20.13;;;11.85;;
72761;SDS011;60886;55.034;73.150;2022-07-29T05:49:05;24.60;;;13.68;;
72761;SDS011;60886;55.034;73.150;2022-07-29T05:51:33;23.43;;;15.43;;
72761;SDS011;60886;55.034;73.150;2022-07-29T05:54:00;25.05;;;17.23;;
72761;SDS011;60886;55.034;73.150;2022-07-29T05:56:27;22.48;;;12.30;;
72761;SDS011;60886;55.034;73.150;2022-07-29T05:58:57;22.67;;;11.48;;
72761;SDS011;60886;55.034;73.150;2022-07-29T06:01:24;19.67;;;9.93;;
72761;SDS011;60886;55.034;73.150;2022-07-29T06:03:50;23.40;;;10.07;;
72761;SDS011;60886;55.034;73.150;2022-07-29T06:06:16;21.33;;;10.88;;
72761;SDS011;60886;55.034;73.150;2022-07-29T06:08:43;20.65;;;9.35;;
72761;SDS011;60886;55.034;73.150;2022-07-29T06:11:09;23.30;;;10.48;;
72761;SDS011;60886;55.034;73.150;2022-07-29T06:13:36;24.05;;;11.63;;
72761;SDS011;60886;55.034;73.150;2022-07-29T06:16:03;25.43;;;12.10;;
72761;SDS011;60886;55.034;73.150;2022-07-29T06:18:30;20.85;;;10.45;;
72761;SDS011;60886;55.034;73.150;2022-07-29T06:20:57;25.50;;;11.60;;
72761;SDS011;60886;55.034;73.150;2022-07-29T06:23:23;25.02;;;12.05;;
72761;SDS011;60886;55.034;73.150;2022-07-29T06:25:50;23.13;;;11.10;;
72761;SDS011;60886;55.034;73.150;2022-07-29T06:28:26;24.40;;;10.50;;
72761;SDS011;60886;55.034;73.150;2022-07-29T06:30:53;27.17;;;11.50;;
72761;SDS011;60886;55.034;73.150;2022-07-29T06:33:20;29.02;;;13.57;;
72761;SDS011;60886;55.034;73.150;2022-07-29T06:35:46;29.58;;;13.30;;
72761;SDS011;60886;55.034;73.150;2022-07-29T06:38:14;27.75;;;12.75;;
72761;SDS011;60886;55.034;73.150;2022-07-29T06:40:41;24.37;;;11.93;;
72761;SDS011;60886;55.034;73.150;2022-07-29T06:43:34;18.77;;;11.00;;
72761;SDS011;60886;55.034;73.150;2022-07-29T06:46:04;15.27;;;9.23;;
72761;SDS011;60886;55.034;73.150;2022-07-29T06:48:32;15.75;;;9.48;;
72761;SDS011;60886;55.034;73.150;2022-07-29T06:50:59;16.63;;;9.27;;
72761;SDS011;60886;55.034;73.150;2022-07-29T06:53:26;16.20;;;9.87;;
72761;SDS011;60886;55.034;73.150;2022-07-29T06:55:53;21.90;;;9.73;;
72761;SDS011;60886;55.034;73.150;2022-07-29T06:58:20;19.60;;;10.32;;
72761;SDS011;60886;55.034;73.150;2022-07-29T07:00:55;17.77;;;9.82;;
72761;SDS011;60886;55.034;73.150;2022-07-29T07:03:26;17.77;;;10.98;;
72761;SDS011;60886;55.034;73.150;2022-07-29T07:05:53;17.10;;;10.77;;
72761;SDS011;60886;55.034;73.150;2022-07-29T07:08:21;18.20;;;12.32;;
72761;SDS011;60886;55.034;73.150;2022-07-29T07:10:49;17.40;;;11.20;;
72761;SDS011;60886;55.034;73.150;2022-07-29T07:13:17;16.30;;;11.75;;
72761;SDS011;60886;55.034;73.150;2022-07-29T07:15:52;16.00;;;12.10;;
72761;SDS011;60886;55.034;73.150;2022-07-29T07:18:19;16.70;;;11.97;;
72761;SDS011;60886;55.034;73.150;2022-07-29T07:20:45;19.65;;;11.55;;
72761;SDS011;60886;55.034;73.150;2022-07-29T07:23:13;17.42;;;11.15;;
72761;SDS011;60886;55.034;73.150;2022-07-29T07:25:39;20.27;;;13.07;;
72761;SDS011;60886;55.034;73.150;2022-07-29T07:28:05;20.45;;;12.75;;
72761;SDS011;60886;55.034;73.150;2022-07-29T07:30:32;16.40;;;9.93;;
72761;SDS011;60886;55.034;73.150;2022-07-29T07:33:06;15.13;;;7.95;;
72761;SDS011;60886;55.034;73.150;2022-07-29T07:35:33;13.38;;;8.15;;
72761;SDS011;60886;55.034;73.150;2022-07-29T07:38:03;13.27;;;8.32;;
72761;SDS011;60886;55.034;73.150;2022-07-29T07:40:32;12.75;;;8.10;;
72761;SDS011;60886;55.034;73.150;2022-07-29T07:42:58;15.30;;;8.60;;
72761;SDS011;60886;55.034;73.150;2022-07-29T07:45:25;15.88;;;8.32;;
72761;SDS011;60886;55.034;73.150;2022-07-29T07:47:52;17.17;;;9.45;;
72761;SDS011;60886;55.034;73.150;2022-07-29T07:50:24;15.55;;;8.65;;
72761;SDS011;60886;55.034;73.150;2022-07-29T07:52:52;17.38;;;8.90;;
72761;SDS011;60886;55.034;73.150;2022-07-29T07:55:22;13.73;;;8.57;;
72761;SDS011;60886;55.034;73.150;2022-07-29T07:57:49;14.00;;;8.48;;
72761;SDS011;60886;55.034;73.150;2022-07-29T08:00:20;15.60;;;8.43;;
72761;SDS011;60886;55.034;73.150;2022-07-29T08:02:47;13.40;;;7.85;;
72761;SDS011;60886;55.034;73.150;2022-07-29T08:05:14;13.40;;;8.20;;
72761;SDS011;60886;55.034;73.150;2022-07-29T08:07:52;11.90;;;7.33;;
72761;SDS011;60886;55.034;73.150;2022-07-29T08:10:19;12.18;;;8.07;;
72761;SDS011;60886;55.034;73.150;2022-07-29T08:13:04;11.90;;;7.30;;
72761;SDS011;60886;55.034;73.150;2022-07-29T08:15:38;16.20;;;7.65;;
72761;SDS011;60886;55.034;73.150;2022-07-29T08:18:05;14.13;;;8.20;;
72761;SDS011;60886;55.034;73.150;2022-07-29T08:20:35;12.67;;;8.00;;
72761;SDS011;60886;55.034;73.150;2022-07-29T08:23:04;13.07;;;8.30;;
72761;SDS011;60886;55.034;73.150;2022-07-29T08:25:37;13.52;;;8.13;;
72761;SDS011;60886;55.034;73.150;2022-07-29T08:28:07;13.38;;;8.30;;
72761;SDS011;60886;55.034;73.150;2022-07-29T08:30:34;11.88;;;7.53;;
72761;SDS011;60886;55.034;73.150;2022-07-29T08:33:00;11.50;;;7.43;;
72761;SDS011;60886;55.034;73.150;2022-07-29T08:35:27;12.02;;;7.63;;
72761;SDS011;60886;55.034;73.150;2022-07-29T08:37:54;11.80;;;7.10;;
72761;SDS011;60886;55.034;73.150;2022-07-29T08:40:20;11.50;;;6.85;;
72761;SDS011;60886;55.034;73.150;2022-07-29T08:42:46;12.88;;;7.97;;
72761;SDS011;60886;55.034;73.150;2022-07-29T08:45:15;14.50;;;8.43;;
72761;SDS011;60886;55.034;73.150;2022-07-29T08:47:43;12.18;;;7.13;;
72761;SDS011;60886;55.034;73.150;2022-07-29T08:50:12;11.30;;;7.13;;
72761;SDS011;60886;55.034;73.150;2022-07-29T08:52:39;11.93;;;7.38;;
72761;SDS011;60886;55.034;73.150;2022-07-29T08:55:07;14.18;;;7.75;;
72761;SDS011;60886;55.034;73.150;2022-07-29T08:57:36;13.07;;;7.00;;
72761;SDS011;60886;55.034;73.150;2022-07-29T09:00:05;13.15;;;7.53;;
72761;SDS011;60886;55.034;73.150;2022-07-29T09:02:41;12.18;;;7.43;;
72761;SDS011;60886;55.034;73.150;2022-07-29T09:05:12;11.50;;;7.10;;
72761;SDS011;60886;55.034;73.150;2022-07-29T09:07:38;13.68;;;7.60;;
72761;SDS011;60886;55.034;73.150;2022-07-29T09:10:08;13.17;;;7.23;;
72761;SDS011;60886;55.034;73.150;2022-07-29T09:12:35;12.15;;;8.32;;
72761;SDS011;60886;55.034;73.150;2022-07-29T09:15:01;13.70;;;7.75;;
72761;SDS011;60886;55.034;73.150;2022-07-29T09:17:44;13.57;;;8.07;;
72761;SDS011;60886;55.034;73.150;2022-07-29T09:20:19;13.45;;;7.90;;
72761;SDS011;60886;55.034;73.150;2022-07-29T09:22:50;12.70;;;7.80;;
72761;SDS011;60886;55.034;73.150;2022-07-29T09:25:32;13.73;;;7.85;;
72761;SDS011;60886;55.034;73.150;2022-07-29T09:28:13;13.05;;;8.15;;
72761;SDS011;60886;55.034;73.150;2022-07-29T09:30:54;14.52;;;7.95;;
72761;SDS011;60886;55.034;73.150;2022-07-29T09:33:32;13.98;;;8.05;;
72761;SDS011;60886;55.034;73.150;2022-07-29T09:36:05;14.47;;;8.47;;
72761;SDS011;60886;55.034;73.150;2022-07-29T09:38:33;14.88;;;8.02;;
72761;SDS011;60886;55.034;73.150;2022-07-29T09:41:13;15.05;;;8.10;;
72761;SDS011;60886;55.034;73.150;2022-07-29T09:43:39;16.48;;;8.52;;
72761;SDS011;60886;55.034;73.150;2022-07-29T09:46:13;16.77;;;8.65;;
72761;SDS011;60886;55.034;73.150;2022-07-29T09:48:40;15.40;;;8.60;;
72761;SDS011;60886;55.034;73.150;2022-07-29T09:51:16;13.02;;;7.70;;
72761;SDS011;60886;55.034;73.150;2022-07-29T09:53:46;10.90;;;7.32;;
72761;SDS011;60886;55.034;73.150;2022-07-29T09:56:12;11.98;;;7.38;;
72761;SDS011;60886;55.034;73.150;2022-07-29T09:58:40;13.18;;;8.00;;
72761;SDS011;60886;55.034;73.150;2022-07-29T10:01:06;13.20;;;7.63;;
72761;SDS011;60886;55.034;73.150;2022-07-29T10:03:33;12.68;;;7.75;;
72761;SDS011;60886;55.034;73.150;2022-07-29T10:06:16;13.20;;;8.10;;
72761;SDS011;60886;55.034;73.150;2022-07-29T10:08:43;13.13;;;7.63;;
72761;SDS011;60886;55.034;73.150;2022-07-29T10:11:14;12.18;;;7.72;;
72761;SDS011;60886;55.034;73.150;2022-07-29T10:13:42;14.40;;;8.73;;
72761;SDS011;60886;55.034;73.150;2022-07-29T10:16:20;13.52;;;8.02;;
72761;SDS011;60886;55.034;73.150;2022-07-29T10:18:47;15.43;;;9.40;;
72761;SDS011;60886;55.034;73.150;2022-07-29T10:21:13;13.55;;;9.48;;
72761;SDS011;60886;55.034;73.150;2022-07-29T10:23:42;17.60;;;9.80;;
72761;SDS011;60886;55.034;73.150;2022-07-29T10:26:09;12.53;;;8.00;;
72761;SDS011;60886;55.034;73.150;2022-07-29T10:28:36;14.73;;;8.48;;
72761;SDS011;60886;55.034;73.150;2022-07-29T10:31:04;11.85;;;7.80;;
72761;SDS011;60886;55.034;73.150;2022-07-29T10:36:11;20.00;;;9.30;;
72761;SDS011;60886;55.034;73.150;2022-07-29T10:44:21;14.07;;;8.25;;
72761;SDS011;60886;55.034;73.150;2022-07-29T10:46:49;14.65;;;8.68;;
72761;SDS011;60886;55.034;73.150;2022-07-29T10:57:24;15.23;;;8.70;;
72761;SDS011;60886;55.034;73.150;2022-07-29T11:07:36;36.90;;;10.32;;
72761;SDS011;60886;55.034;73.150;2022-07-29T11:15:12;12.82;;;8.20;;
72761;SDS011;60886;55.034;73.150;2022-07-29T11:20:39;15.05;;;8.57;;
72761;SDS011;60886;55.034;73.150;2022-07-29T11:23:26;13.50;;;8.45;;
72761;SDS011;60886;55.034;73.150;2022-07-29T11:31:47;23.97;;;9.27;;
72761;SDS011;60886;55.034;73.150;2022-07-29T11:34:30;30.08;;;9.70;;
72761;SDS011;60886;55.034;73.150;2022-07-29T11:37:20;25.02;;;9.70;;
72761;SDS011;60886;55.034;73.150;2022-07-29T11:39:47;13.93;;;7.60;;
72761;SDS011;60886;55.034;73.150;2022-07-29T11:44:59;13.27;;;8.07;;
72761;SDS011;60886;55.034;73.150;2022-07-29T11:50:13;16.20;;;7.75;;
72761;SDS011;60886;55.034;73.150;2022-07-29T11:52:43;14.75;;;7.47;;
72761;SDS011;60886;55.034;73.150;2022-07-29T11:55:14;14.05;;;7.45;;
72761;SDS011;60886;55.034;73.150;2022-07-29T11:57:49;13.17;;;8.80;;
72761;SDS011;60886;55.034;73.150;2022-07-29T12:02:59;10.77;;;7.00;;
72761;SDS011;60886;55.034;73.150;2022-07-29T12:05:32;12.60;;;7.18;;
72761;SDS011;60886;55.034;73.150;2022-07-29T12:08:21;12.07;;;7.75;;
72761;SDS011;60886;55.034;73.150;2022-07-29T12:10:49;15.27;;;6.93;;
72761;SDS011;60886;55.034;73.150;2022-07-29T12:13:17;11.48;;;7.40;;
72761;SDS011;60886;55.034;73.150;2022-07-29T12:15:52;10.93;;;7.53;;
72761;SDS011;60886;55.034;73.150;2022-07-29T12:18:36;10.63;;;7.80;;
72761;SDS011;60886;55.034;73.150;2022-07-29T12:21:02;11.65;;;6.38;;
72761;SDS011;60886;55.034;73.150;2022-07-29T12:23:33;13.23;;;6.50;;
72761;SDS011;60886;55.034;73.150;2022-07-29T12:25:59;15.80;;;7.18;;
72761;SDS011;60886;55.034;73.150;2022-07-29T12:28:26;15.20;;;8.77;;
72761;SDS011;60886;55.034;73.150;2022-07-29T12:30:53;13.55;;;7.60;;
72761;SDS011;60886;55.034;73.150;2022-07-29T12:35:54;13.77;;;7.27;;
72761;SDS011;60886;55.034;73.150;2022-07-29T12:38:33;11.18;;;7.07;;
72761;SDS011;60886;55.034;73.150;2022-07-29T12:41:04;10.95;;;6.88;;
72761;SDS011;60886;55.034;73.150;2022-07-29T12:43:31;16.75;;;8.98;;
72761;SDS011;60886;55.034;73.150;2022-07-29T12:46:10;12.85;;;6.20;;
72761;SDS011;60886;55.034;73.150;2022-07-29T12:48:39;17.03;;;7.23;;
72761;SDS011;60886;55.034;73.150;2022-07-29T12:51:08;17.17;;;7.03;;
72761;SDS011;60886;55.034;73.150;2022-07-29T12:53:37;14.90;;;6.78;;
72761;SDS011;60886;55.034;73.150;2022-07-29T12:56:04;14.52;;;6.30;;
72761;SDS011;60886;55.034;73.150;2022-07-29T12:58:33;22.38;;;6.90;;
72761;SDS011;60886;55.034;73.150;2022-07-29T13:03:48;20.10;;;11.77;;
72761;SDS011;60886;55.034;73.150;2022-07-29T13:06:43;15.00;;;6.25;;
72761;SDS011;60886;55.034;73.150;2022-07-29T13:09:15;14.10;;;6.40;;
72761;SDS011;60886;55.034;73.150;2022-07-29T13:14:12;12.40;;;6.53;;
72761;SDS011;60886;55.034;73.150;2022-07-29T13:19:35;13.63;;;5.78;;
72761;SDS011;60886;55.034;73.150;2022-07-29T13:22:10;10.65;;;6.70;;
72761;SDS011;60886;55.034;73.150;2022-07-29T13:24:56;12.88;;;6.03;;
72761;SDS011;60886;55.034;73.150;2022-07-29T13:27:28;10.63;;;6.63;;
72761;SDS011;60886;55.034;73.150;2022-07-29T13:30:02;11.40;;;5.25;;
72761;SDS011;60886;55.034;73.150;2022-07-29T13:32:40;10.80;;;5.72;;
72761;SDS011;60886;55.034;73.150;2022-07-29T13:35:07;9.68;;;5.47;;
72761;SDS011;60886;55.034;73.150;2022-07-29T13:37:35;12.73;;;6.30;;
72761;SDS011;60886;55.034;73.150;2022-07-29T13:40:04;11.07;;;5.90;;
72761;SDS011;60886;55.034;73.150;2022-07-29T13:42:35;11.75;;;7.18;;
72761;SDS011;60886;55.034;73.150;2022-07-29T13:45:02;11.77;;;5.90;;
72761;SDS011;60886;55.034;73.150;2022-07-29T13:47:32;11.45;;;6.03;;
72761;SDS011;60886;55.034;73.150;2022-07-29T13:50:02;9.23;;;4.43;;
72761;SDS011;60886;55.034;73.150;2022-07-29T13:52:30;11.53;;;5.63;;
72761;SDS011;60886;55.034;73.150;2022-07-29T13:54:56;9.82;;;4.57;;
72761;SDS011;60886;55.034;73.150;2022-07-29T13:57:23;12.88;;;4.70;;
72761;SDS011;60886;55.034;73.150;2022-07-29T13:59:50;14.05;;;5.03;;
72761;SDS011;60886;55.034;73.150;2022-07-29T14:02:19;11.27;;;5.32;;
72761;SDS011;60886;55.034;73.150;2022-07-29T14:04:46;10.03;;;4.20;;
72761;SDS011;60886;55.034;73.150;2022-07-29T14:07:12;11.43;;;4.15;;
72761;SDS011;60886;55.034;73.150;2022-07-29T14:09:39;12.20;;;4.68;;
72761;SDS011;60886;55.034;73.150;2022-07-29T14:12:05;14.00;;;5.05;;
72761;SDS011;60886;55.034;73.150;2022-07-29T14:14:32;10.80;;;4.47;;
72761;SDS011;60886;55.034;73.150;2022-07-29T14:17:01;10.17;;;4.40;;
72761;SDS011;60886;55.034;73.150;2022-07-29T14:19:29;11.27;;;5.85;;
72761;SDS011;60886;55.034;73.150;2022-07-29T14:21:57;10.15;;;5.55;;
72761;SDS011;60886;55.034;73.150;2022-07-29T14:24:26;9.15;;;4.80;;
72761;SDS011;60886;55.034;73.150;2022-07-29T14:26:53;45.70;;;27.42;;
72761;SDS011;60886;55.034;73.150;2022-07-29T14:29:19;15.93;;;5.40;;
72761;SDS011;60886;55.034;73.150;2022-07-29T14:31:46;13.18;;;4.72;;
72761;SDS011;60886;55.034;73.150;2022-07-29T14:34:12;13.52;;;4.82;;
72761;SDS011;60886;55.034;73.150;2022-07-29T14:36:41;12.02;;;4.18;;
72761;SDS011;60886;55.034;73.150;2022-07-29T14:39:18;10.88;;;4.07;;
72761;SDS011;60886;55.034;73.150;2022-07-29T14:41:44;13.07;;;4.43;;
72761;SDS011;60886;55.034;73.150;2022-07-29T14:44:11;11.50;;;4.57;;
72761;SDS011;60886;55.034;73.150;2022-07-29T14:46:37;11.32;;;5.80;;
72761;SDS011;60886;55.034;73.150;2022-07-29T14:49:04;12.70;;;4.93;;
72761;SDS011;60886;55.034;73.150;2022-07-29T14:51:31;12.07;;;4.32;;
72761;SDS011;60886;55.034;73.150;2022-07-29T14:54:08;10.67;;;4.17;;
72761;SDS011;60886;55.034;73.150;2022-07-29T14:56:34;10.35;;;3.80;;
72761;SDS011;60886;55.034;73.150;2022-07-29T14:59:01;10.00;;;3.92;;
72761;SDS011;60886;55.034;73.150;2022-07-29T15:01:27;12.70;;;4.45;;
72761;SDS011;60886;55.034;73.150;2022-07-29T15:04:00;7.82;;;3.65;;
72761;SDS011;60886;55.034;73.150;2022-07-29T15:06:26;9.87;;;4.27;;
72761;SDS011;60886;55.034;73.150;2022-07-29T15:08:53;10.50;;;4.00;;
72761;SDS011;60886;55.034;73.150;2022-07-29T15:11:19;11.60;;;4.15;;
72761;SDS011;60886;55.034;73.150;2022-07-29T15:13:56;13.80;;;4.00;;
72761;SDS011;60886;55.034;73.150;2022-07-29T15:16:22;12.45;;;4.07;;
72761;SDS011;60886;55.034;73.150;2022-07-29T15:18:59;14.93;;;3.70;;
72761;SDS011;60886;55.034;73.150;2022-07-29T15:21:26;12.60;;;3.90;;
72761;SDS011;60886;55.034;73.150;2022-07-29T15:23:52;12.73;;;5.05;;
72761;SDS011;60886;55.034;73.150;2022-07-29T15:26:29;8.73;;;3.80;;
72761;SDS011;60886;55.034;73.150;2022-07-29T15:28:56;12.20;;;3.63;;
72761;SDS011;60886;55.034;73.150;2022-07-29T15:31:22;9.90;;;3.70;;
72761;SDS011;60886;55.034;73.150;2022-07-29T15:33:49;16.63;;;4.10;;
72761;SDS011;60886;55.034;73.150;2022-07-29T15:36:15;18.50;;;4.22;;
72761;SDS011;60886;55.034;73.150;2022-07-29T15:38:42;15.80;;;4.45;;
72761;SDS011;60886;55.034;73.150;2022-07-29T15:41:12;20.27;;;4.90;;
72761;SDS011;60886;55.034;73.150;2022-07-29T15:43:43;16.63;;;4.60;;
72761;SDS011;60886;55.034;73.150;2022-07-29T15:46:20;12.32;;;4.05;;